sensor_id;sensor_type;location;lat;lon;timestamp;P1;durP1;ratioP1;P2;durP2;ratioP2
25045;SDS011;13044;49.304;12.840;2023-08-20T00:01:22;7.65;;;5.55;;
25045;SDS011;13044;49.304;12.840;2023-08-20T00:03:54;6.13;;;5.20;;
25045;SDS011;13044;49.304;12.840;2023-08-20T00:06:22;10.00;;;6.00;;
25045;SDS011;13044;49.304;12.840;2023-08-20T00:08:50;5.63;;;4.88;;
25045;SDS011;13044;49.304;12.840;2023-08-20T00:11:17;5.75;;;4.80;;
25045;SDS011;13044;49.304;12.840;2023-08-20T00:13:44;5.07;;;4.68;;
25045;SDS011;13044;49.304;12.840;2023-08-20T00:16:11;5.72;;;5.20;;
25045;SDS011;13044;49.304;12.840;2023-08-20T00:18:38;5.95;;;5.35;;
25045;SDS011;13044;49.304;12.840;2023-08-20T00:21:06;5.03;;;4.47;;
25045;SDS011;13044;49.304;12.840;2023-08-20T00:23:34;5.03;;;4.55;;
25045;SDS011;13044;49.304;12.840;2023-08-20T00:26:02;4.72;;;4.25;;
25045;SDS011;13044;49.304;12.840;2023-08-20T00:28:30;4.85;;;4.45;;
25045;SDS011;13044;49.304;12.840;2023-08-20T00:30:59;4.82;;;4.40;;
25045;SDS011;13044;49.304;12.840;2023-08-20T00:33:27;5.45;;;4.60;;
25045;SDS011;13044;49.304;12.840;2023-08-20T00:35:54;5.15;;;4.50;;
25045;SDS011;13044;49.304;12.840;2023-08-20T00:38:21;4.70;;;4.20;;
25045;SDS011;13044;49.304;12.840;2023-08-20T00:40:47;5.47;;;4.97;;
25045;SDS011;13044;49.304;12.840;2023-08-20T00:43:14;5.63;;;5.13;;
25045;SDS011;13044;49.304;12.840;2023-08-20T00:45:41;6.68;;;5.97;;
25045;SDS011;13044;49.304;12.840;2023-08-20T00:48:09;6.75;;;6.05;;
25045;SDS011;13044;49.304;12.840;2023-08-20T00:50:37;8.13;;;5.85;;
25045;SDS011;13044;49.304;12.840;2023-08-20T00:53:06;6.13;;;5.50;;
25045;SDS011;13044;49.304;12.840;2023-08-20T00:55:36;6.10;;;5.50;;
25045;SDS011;13044;49.304;12.840;2023-08-20T00:58:03;5.88;;;5.28;;
25045;SDS011;13044;49.304;12.840;2023-08-20T01:00:31;5.28;;;4.50;;
25045;SDS011;13044;49.304;12.840;2023-08-20T01:02:58;4.82;;;4.00;;
25045;SDS011;13044;49.304;12.840;2023-08-20T01:05:25;5.00;;;3.80;;
25045;SDS011;13044;49.304;12.840;2023-08-20T01:11:03;4.43;;;4.03;;
25045;SDS011;13044;49.304;12.840;2023-08-20T01:13:37;4.55;;;4.15;;
25045;SDS011;13044;49.304;12.840;2023-08-20T01:16:04;4.78;;;4.07;;
25045;SDS011;13044;49.304;12.840;2023-08-20T01:18:31;4.38;;;3.97;;
25045;SDS011;13044;49.304;12.840;2023-08-20T01:20:58;4.22;;;3.72;;
25045;SDS011;13044;49.304;12.840;2023-08-20T01:29:43;5.03;;;4.50;;
25045;SDS011;13044;49.304;12.840;2023-08-20T01:32:11;5.15;;;3.90;;
25045;SDS011;13044;49.304;12.840;2023-08-20T01:34:39;10.27;;;4.25;;
25045;SDS011;13044;49.304;12.840;2023-08-20T01:37:06;4.55;;;4.15;;
25045;SDS011;13044;49.304;12.840;2023-08-20T01:39:32;4.28;;;3.55;;
25045;SDS011;13044;49.304;12.840;2023-08-20T01:41:59;3.85;;;3.55;;
25045;SDS011;13044;49.304;12.840;2023-08-20T01:44:26;3.70;;;3.40;;
25045;SDS011;13044;49.304;12.840;2023-08-20T01:46:53;3.95;;;3.60;;
25045;SDS011;13044;49.304;12.840;2023-08-20T01:49:20;4.22;;;3.92;;
25045;SDS011;13044;49.304;12.840;2023-08-20T01:51:47;6.65;;;4.22;;
25045;SDS011;13044;49.304;12.840;2023-08-20T01:54:14;5.28;;;4.25;;
25045;SDS011;13044;49.304;12.840;2023-08-20T01:56:41;4.25;;;3.85;;
25045;SDS011;13044;49.304;12.840;2023-08-20T01:59:08;4.07;;;3.70;;
25045;SDS011;13044;49.304;12.840;2023-08-20T02:01:35;4.95;;;4.32;;
25045;SDS011;13044;49.304;12.840;2023-08-20T02:04:02;8.77;;;5.13;;
25045;SDS011;13044;49.304;12.840;2023-08-20T02:06:29;4.50;;;4.10;;
25045;SDS011;13044;49.304;12.840;2023-08-20T02:08:55;4.43;;;4.03;;
25045;SDS011;13044;49.304;12.840;2023-08-20T02:11:23;4.57;;;4.18;;
25045;SDS011;13044;49.304;12.840;2023-08-20T02:13:49;6.55;;;4.28;;
25045;SDS011;13044;49.304;12.840;2023-08-20T02:16:16;6.50;;;4.25;;
25045;SDS011;13044;49.304;12.840;2023-08-20T02:18:43;4.72;;;4.32;;
25045;SDS011;13044;49.304;12.840;2023-08-20T02:21:10;4.80;;;4.30;;
25045;SDS011;13044;49.304;12.840;2023-08-20T02:23:37;4.32;;;3.92;;
25045;SDS011;13044;49.304;12.840;2023-08-20T02:26:04;6.50;;;4.32;;
25045;SDS011;13044;49.304;12.840;2023-08-20T02:28:31;4.60;;;4.20;;
25045;SDS011;13044;49.304;12.840;2023-08-20T02:30:58;4.82;;;4.30;;
25045;SDS011;13044;49.304;12.840;2023-08-20T02:33:31;4.78;;;4.30;;
25045;SDS011;13044;49.304;12.840;2023-08-20T02:36:02;5.88;;;4.20;;
25045;SDS011;13044;49.304;12.840;2023-08-20T02:38:30;5.05;;;4.43;;
25045;SDS011;13044;49.304;12.840;2023-08-20T02:40:57;4.57;;;4.18;;
25045;SDS011;13044;49.304;12.840;2023-08-20T02:43:24;4.60;;;4.20;;
25045;SDS011;13044;49.304;12.840;2023-08-20T02:45:51;4.28;;;3.88;;
25045;SDS011;13044;49.304;12.840;2023-08-20T02:48:18;6.25;;;4.15;;
25045;SDS011;13044;49.304;12.840;2023-08-20T02:50:45;5.10;;;4.20;;
25045;SDS011;13044;49.304;12.840;2023-08-20T02:53:12;5.50;;;4.30;;
25045;SDS011;13044;49.304;12.840;2023-08-20T02:55:40;4.85;;;4.45;;
25045;SDS011;13044;49.304;12.840;2023-08-20T02:58:07;5.53;;;4.68;;
25045;SDS011;13044;49.304;12.840;2023-08-20T03:00:35;4.90;;;4.47;;
25045;SDS011;13044;49.304;12.840;2023-08-20T03:03:03;8.05;;;4.88;;
25045;SDS011;13044;49.304;12.840;2023-08-20T03:05:34;4.85;;;4.45;;
25045;SDS011;13044;49.304;12.840;2023-08-20T03:08:01;5.97;;;5.15;;
25045;SDS011;13044;49.304;12.840;2023-08-20T03:10:32;5.10;;;4.60;;
25045;SDS011;13044;49.304;12.840;2023-08-20T03:12:59;5.35;;;4.85;;
25045;SDS011;13044;49.304;12.840;2023-08-20T03:15:29;5.40;;;4.90;;
25045;SDS011;13044;49.304;12.840;2023-08-20T03:17:57;6.20;;;5.22;;
25045;SDS011;13044;49.304;12.840;2023-08-20T03:20:24;5.63;;;5.03;;
25045;SDS011;13044;49.304;12.840;2023-08-20T03:22:51;5.85;;;5.25;;
25045;SDS011;13044;49.304;12.840;2023-08-20T03:25:18;8.07;;;4.97;;
25045;SDS011;13044;49.304;12.840;2023-08-20T03:27:44;6.07;;;5.07;;
25045;SDS011;13044;49.304;12.840;2023-08-20T03:30:12;6.97;;;5.57;;
25045;SDS011;13044;49.304;12.840;2023-08-20T03:32:39;5.38;;;4.88;;
25045;SDS011;13044;49.304;12.840;2023-08-20T03:35:06;5.22;;;4.53;;
25045;SDS011;13044;49.304;12.840;2023-08-20T03:37:33;5.65;;;4.50;;
25045;SDS011;13044;49.304;12.840;2023-08-20T03:40:00;5.00;;;4.20;;
25045;SDS011;13044;49.304;12.840;2023-08-20T03:42:28;4.90;;;4.45;;
25045;SDS011;13044;49.304;12.840;2023-08-20T03:44:55;4.90;;;4.50;;
25045;SDS011;13044;49.304;12.840;2023-08-20T03:47:22;4.78;;;4.38;;
25045;SDS011;13044;49.304;12.840;2023-08-20T03:49:49;4.57;;;4.15;;
25045;SDS011;13044;49.304;12.840;2023-08-20T03:52:16;4.57;;;4.18;;
25045;SDS011;13044;49.304;12.840;2023-08-20T03:54:42;4.32;;;3.92;;
25045;SDS011;13044;49.304;12.840;2023-08-20T03:57:09;4.38;;;3.97;;
25045;SDS011;13044;49.304;12.840;2023-08-20T03:59:36;4.80;;;4.35;;
25045;SDS011;13044;49.304;12.840;2023-08-20T04:02:03;4.90;;;4.38;;
25045;SDS011;13044;49.304;12.840;2023-08-20T04:04:30;4.95;;;4.50;;
25045;SDS011;13044;49.304;12.840;2023-08-20T04:06:57;5.43;;;4.72;;
25045;SDS011;13044;49.304;12.840;2023-08-20T04:09:24;5.05;;;4.55;;
25045;SDS011;13044;49.304;12.840;2023-08-20T04:11:51;5.30;;;4.80;;
25045;SDS011;13044;49.304;12.840;2023-08-20T04:14:18;4.72;;;4.32;;
25045;SDS011;13044;49.304;12.840;2023-08-20T04:16:45;5.05;;;4.55;;
25045;SDS011;13044;49.304;12.840;2023-08-20T04:19:12;5.38;;;4.72;;
25045;SDS011;13044;49.304;12.840;2023-08-20T04:21:39;5.35;;;4.85;;
25045;SDS011;13044;49.304;12.840;2023-08-20T04:24:05;5.38;;;4.88;;
25045;SDS011;13044;49.304;12.840;2023-08-20T04:26:33;6.38;;;5.60;;
25045;SDS011;13044;49.304;12.840;2023-08-20T04:29:00;7.47;;;6.28;;
25045;SDS011;13044;49.304;12.840;2023-08-20T04:31:27;6.95;;;6.15;;
25045;SDS011;13044;49.304;12.840;2023-08-20T04:33:54;6.65;;;5.95;;
25045;SDS011;13044;49.304;12.840;2023-08-20T04:36:21;7.72;;;6.13;;
25045;SDS011;13044;49.304;12.840;2023-08-20T04:38:48;7.88;;;6.10;;
25045;SDS011;13044;49.304;12.840;2023-08-20T04:41:15;9.07;;;5.90;;
25045;SDS011;13044;49.304;12.840;2023-08-20T04:43:42;5.55;;;5.05;;
25045;SDS011;13044;49.304;12.840;2023-08-20T04:46:08;6.15;;;5.55;;
25045;SDS011;13044;49.304;12.840;2023-08-20T04:48:35;6.50;;;4.80;;
25045;SDS011;13044;49.304;12.840;2023-08-20T04:51:02;5.22;;;4.80;;
25045;SDS011;13044;49.304;12.840;2023-08-20T04:53:32;5.20;;;4.70;;
25045;SDS011;13044;49.304;12.840;2023-08-20T04:55:58;5.28;;;4.78;;
25045;SDS011;13044;49.304;12.840;2023-08-20T04:58:25;5.00;;;4.50;;
25045;SDS011;13044;49.304;12.840;2023-08-20T05:00:52;7.70;;;5.15;;
25045;SDS011;13044;49.304;12.840;2023-08-20T05:03:19;6.72;;;5.05;;
25045;SDS011;13044;49.304;12.840;2023-08-20T05:05:50;9.55;;;4.55;;
25045;SDS011;13044;49.304;12.840;2023-08-20T05:08:17;5.47;;;4.97;;
25045;SDS011;13044;49.304;12.840;2023-08-20T05:10:43;5.07;;;4.65;;
25045;SDS011;13044;49.304;12.840;2023-08-20T05:13:10;5.38;;;4.95;;
25045;SDS011;13044;49.304;12.840;2023-08-20T05:15:37;6.18;;;5.63;;
25045;SDS011;13044;49.304;12.840;2023-08-20T05:18:04;5.85;;;5.35;;
25045;SDS011;13044;49.304;12.840;2023-08-20T05:20:31;7.38;;;5.40;;
25045;SDS011;13044;49.304;12.840;2023-08-20T05:22:58;5.55;;;4.93;;
25045;SDS011;13044;49.304;12.840;2023-08-20T05:25:25;5.68;;;5.18;;
25045;SDS011;13044;49.304;12.840;2023-08-20T05:27:52;6.30;;;4.70;;
25045;SDS011;13044;49.304;12.840;2023-08-20T05:30:19;5.55;;;5.05;;
25045;SDS011;13044;49.304;12.840;2023-08-20T05:32:46;5.65;;;5.15;;
25045;SDS011;13044;49.304;12.840;2023-08-20T05:35:13;5.55;;;4.90;;
25045;SDS011;13044;49.304;12.840;2023-08-20T05:37:40;5.78;;;5.18;;
25045;SDS011;13044;49.304;12.840;2023-08-20T05:40:07;6.13;;;5.53;;
25045;SDS011;13044;49.304;12.840;2023-08-20T05:42:35;5.90;;;5.40;;
25045;SDS011;13044;49.304;12.840;2023-08-20T05:45:02;6.47;;;4.82;;
25045;SDS011;13044;49.304;12.840;2023-08-20T05:47:30;4.85;;;4.35;;
25045;SDS011;13044;49.304;12.840;2023-08-20T05:49:57;5.85;;;5.03;;
25045;SDS011;13044;49.304;12.840;2023-08-20T05:52:24;6.03;;;5.43;;
25045;SDS011;13044;49.304;12.840;2023-08-20T05:54:51;5.85;;;5.28;;
25045;SDS011;13044;49.304;12.840;2023-08-20T05:57:17;6.22;;;5.22;;
25045;SDS011;13044;49.304;12.840;2023-08-20T05:59:44;7.70;;;5.53;;
25045;SDS011;13044;49.304;12.840;2023-08-20T06:02:15;5.28;;;4.78;;
25045;SDS011;13044;49.304;12.840;2023-08-20T06:04:44;6.63;;;5.43;;
25045;SDS011;13044;49.304;12.840;2023-08-20T06:07:11;5.90;;;5.40;;
25045;SDS011;13044;49.304;12.840;2023-08-20T06:09:38;5.50;;;5.03;;
25045;SDS011;13044;49.304;12.840;2023-08-20T06:12:05;5.70;;;5.10;;
25045;SDS011;13044;49.304;12.840;2023-08-20T06:14:32;8.38;;;5.57;;
25045;SDS011;13044;49.304;12.840;2023-08-20T06:16:59;5.72;;;5.03;;
25045;SDS011;13044;49.304;12.840;2023-08-20T06:19:26;5.85;;;5.25;;
25045;SDS011;13044;49.304;12.840;2023-08-20T06:21:52;7.93;;;4.70;;
25045;SDS011;13044;49.304;12.840;2023-08-20T06:24:19;4.88;;;4.45;;
25045;SDS011;13044;49.304;12.840;2023-08-20T06:26:46;5.78;;;5.28;;
25045;SDS011;13044;49.304;12.840;2023-08-20T06:29:13;9.35;;;5.22;;
25045;SDS011;13044;49.304;12.840;2023-08-20T06:31:40;6.90;;;5.70;;
25045;SDS011;13044;49.304;12.840;2023-08-20T06:34:07;5.75;;;5.22;;
25045;SDS011;13044;49.304;12.840;2023-08-20T06:36:34;5.85;;;5.28;;
25045;SDS011;13044;49.304;12.840;2023-08-20T06:39:01;5.90;;;5.30;;
25045;SDS011;13044;49.304;12.840;2023-08-20T06:41:28;5.40;;;4.93;;
25045;SDS011;13044;49.304;12.840;2023-08-20T06:43:55;6.88;;;5.53;;
25045;SDS011;13044;49.304;12.840;2023-08-20T06:46:22;5.45;;;4.95;;
25045;SDS011;13044;49.304;12.840;2023-08-20T06:48:49;7.82;;;5.40;;
25045;SDS011;13044;49.304;12.840;2023-08-20T06:51:19;5.13;;;4.63;;
25045;SDS011;13044;49.304;12.840;2023-08-20T06:53:47;5.75;;;4.82;;
25045;SDS011;13044;49.304;12.840;2023-08-20T06:56:15;8.30;;;5.50;;
25045;SDS011;13044;49.304;12.840;2023-08-20T06:58:42;5.78;;;5.18;;
25045;SDS011;13044;49.304;12.840;2023-08-20T07:01:09;6.15;;;5.15;;
25045;SDS011;13044;49.304;12.840;2023-08-20T07:03:39;5.97;;;5.30;;
25045;SDS011;13044;49.304;12.840;2023-08-20T07:06:08;7.25;;;5.65;;
25045;SDS011;13044;49.304;12.840;2023-08-20T07:08:36;6.35;;;5.82;;
25045;SDS011;13044;49.304;12.840;2023-08-20T07:11:05;5.90;;;5.30;;
25045;SDS011;13044;49.304;12.840;2023-08-20T07:13:32;6.60;;;5.20;;
25045;SDS011;13044;49.304;12.840;2023-08-20T07:15:59;6.47;;;5.88;;
25045;SDS011;13044;49.304;12.840;2023-08-20T07:18:27;5.88;;;5.07;;
25045;SDS011;13044;49.304;12.840;2023-08-20T07:20:55;6.35;;;4.88;;
25045;SDS011;13044;49.304;12.840;2023-08-20T07:23:22;5.65;;;5.15;;
25045;SDS011;13044;49.304;12.840;2023-08-20T07:25:49;6.00;;;5.40;;
25045;SDS011;13044;49.304;12.840;2023-08-20T07:28:18;6.60;;;5.25;;
25045;SDS011;13044;49.304;12.840;2023-08-20T07:31:08;7.90;;;7.10;;
25045;SDS011;13044;49.304;12.840;2023-08-20T07:33:35;7.65;;;6.78;;
25045;SDS011;13044;49.304;12.840;2023-08-20T07:36:02;7.55;;;6.40;;
25045;SDS011;13044;49.304;12.840;2023-08-20T07:38:29;6.15;;;5.60;;
25045;SDS011;13044;49.304;12.840;2023-08-20T07:40:56;9.13;;;5.20;;
25045;SDS011;13044;49.304;12.840;2023-08-20T07:43:23;5.30;;;4.80;;
25045;SDS011;13044;49.304;12.840;2023-08-20T07:45:50;7.65;;;5.70;;
25045;SDS011;13044;49.304;12.840;2023-08-20T07:48:17;5.40;;;4.95;;
25045;SDS011;13044;49.304;12.840;2023-08-20T07:50:44;5.63;;;5.13;;
25045;SDS011;13044;49.304;12.840;2023-08-20T07:53:11;6.05;;;5.45;;
25045;SDS011;13044;49.304;12.840;2023-08-20T07:55:38;5.65;;;5.03;;
25045;SDS011;13044;49.304;12.840;2023-08-20T07:58:05;6.65;;;5.95;;
25045;SDS011;13044;49.304;12.840;2023-08-20T08:00:32;7.72;;;5.22;;
25045;SDS011;13044;49.304;12.840;2023-08-20T08:02:59;5.35;;;4.88;;
25045;SDS011;13044;49.304;12.840;2023-08-20T08:05:26;6.15;;;5.60;;
25045;SDS011;13044;49.304;12.840;2023-08-20T08:07:54;6.88;;;5.97;;
25045;SDS011;13044;49.304;12.840;2023-08-20T08:10:21;6.03;;;5.35;;
25045;SDS011;13044;49.304;12.840;2023-08-20T08:12:48;6.70;;;5.30;;
25045;SDS011;13044;49.304;12.840;2023-08-20T08:15:15;5.68;;;5.18;;
25045;SDS011;13044;49.304;12.840;2023-08-20T08:17:44;6.20;;;5.60;;
25045;SDS011;13044;49.304;12.840;2023-08-20T08:20:11;5.13;;;4.65;;
25045;SDS011;13044;49.304;12.840;2023-08-20T08:22:38;5.40;;;4.90;;
25045;SDS011;13044;49.304;12.840;2023-08-20T08:25:06;5.25;;;4.75;;
25045;SDS011;13044;49.304;12.840;2023-08-20T08:27:33;5.38;;;4.88;;
25045;SDS011;13044;49.304;12.840;2023-08-20T08:30:12;4.70;;;4.30;;
25045;SDS011;13044;49.304;12.840;2023-08-20T08:32:40;4.28;;;3.88;;
25045;SDS011;13044;49.304;12.840;2023-08-20T08:35:07;4.15;;;3.85;;
25045;SDS011;13044;49.304;12.840;2023-08-20T08:37:34;4.93;;;4.50;;
25045;SDS011;13044;49.304;12.840;2023-08-20T08:40:02;4.68;;;4.25;;
25045;SDS011;13044;49.304;12.840;2023-08-20T08:42:33;5.05;;;4.60;;
25045;SDS011;13044;49.304;12.840;2023-08-20T08:45:00;4.85;;;4.45;;
25045;SDS011;13044;49.304;12.840;2023-08-20T08:47:27;5.28;;;4.80;;
25045;SDS011;13044;49.304;12.840;2023-08-20T08:49:55;5.20;;;4.25;;
25045;SDS011;13044;49.304;12.840;2023-08-20T08:52:23;5.43;;;4.50;;
25045;SDS011;13044;49.304;12.840;2023-08-20T08:54:51;4.68;;;4.25;;
25045;SDS011;13044;49.304;12.840;2023-08-20T08:57:19;5.88;;;4.50;;
25045;SDS011;13044;49.304;12.840;2023-08-20T08:59:46;5.13;;;4.65;;
25045;SDS011;13044;49.304;12.840;2023-08-20T09:02:13;5.03;;;4.63;;
25045;SDS011;13044;49.304;12.840;2023-08-20T09:04:43;6.57;;;4.63;;
25045;SDS011;13044;49.304;12.840;2023-08-20T09:07:11;4.93;;;4.53;;
25045;SDS011;13044;49.304;12.840;2023-08-20T09:09:43;4.75;;;4.30;;
25045;SDS011;13044;49.304;12.840;2023-08-20T09:14:51;3.78;;;3.47;;
25045;SDS011;13044;49.304;12.840;2023-08-20T09:17:20;3.65;;;3.35;;
25045;SDS011;13044;49.304;12.840;2023-08-20T09:19:47;4.32;;;3.47;;
25045;SDS011;13044;49.304;12.840;2023-08-20T09:22:15;4.07;;;3.67;;
25045;SDS011;13044;49.304;12.840;2023-08-20T09:24:44;4.13;;;3.70;;
25045;SDS011;13044;49.304;12.840;2023-08-20T09:27:12;3.75;;;3.38;;
25045;SDS011;13044;49.304;12.840;2023-08-20T09:29:43;3.38;;;3.08;;
25045;SDS011;13044;49.304;12.840;2023-08-20T09:32:19;3.85;;;3.55;;
25045;SDS011;13044;49.304;12.840;2023-08-20T09:34:52;4.00;;;3.60;;
25045;SDS011;13044;49.304;12.840;2023-08-20T09:37:21;4.18;;;3.78;;
25045;SDS011;13044;49.304;12.840;2023-08-20T09:39:50;3.72;;;3.42;;
25045;SDS011;13044;49.304;12.840;2023-08-20T09:42:17;3.78;;;3.47;;
25045;SDS011;13044;49.304;12.840;2023-08-20T09:44:46;3.92;;;3.63;;
25045;SDS011;13044;49.304;12.840;2023-08-20T09:47:17;3.50;;;3.30;;
25045;SDS011;13044;49.304;12.840;2023-08-20T09:49:47;4.40;;;3.65;;
25045;SDS011;13044;49.304;12.840;2023-08-20T09:52:21;4.15;;;3.83;;
25045;SDS011;13044;49.304;12.840;2023-08-20T09:57:39;3.60;;;3.30;;
25045;SDS011;13044;49.304;12.840;2023-08-20T10:00:11;3.42;;;3.13;;
25045;SDS011;13044;49.304;12.840;2023-08-20T10:02:39;3.55;;;3.25;;
25045;SDS011;13044;49.304;12.840;2023-08-20T10:05:08;3.67;;;3.38;;
25045;SDS011;13044;49.304;12.840;2023-08-20T10:07:37;5.53;;;3.78;;
25045;SDS011;13044;49.304;12.840;2023-08-20T10:10:05;4.05;;;3.45;;
25045;SDS011;13044;49.304;12.840;2023-08-20T10:12:36;4.80;;;3.40;;
25045;SDS011;13044;49.304;12.840;2023-08-20T10:15:06;3.55;;;3.30;;
25045;SDS011;13044;49.304;12.840;2023-08-20T10:17:35;5.70;;;3.53;;
25045;SDS011;13044;49.304;12.840;2023-08-20T10:20:06;4.25;;;3.47;;
25045;SDS011;13044;49.304;12.840;2023-08-20T10:25:09;4.23;;;3.83;;
25045;SDS011;13044;49.304;12.840;2023-08-20T10:27:50;4.32;;;3.90;;
25045;SDS011;13044;49.304;12.840;2023-08-20T10:30:20;3.78;;;3.47;;
25045;SDS011;13044;49.304;12.840;2023-08-20T10:32:52;3.95;;;3.55;;
25045;SDS011;13044;49.304;12.840;2023-08-20T10:35:25;4.13;;;3.72;;
25045;SDS011;13044;49.304;12.840;2023-08-20T10:48:58;4.13;;;3.75;;
25045;SDS011;13044;49.304;12.840;2023-08-20T10:51:32;3.90;;;3.60;;
25045;SDS011;13044;49.304;12.840;2023-08-20T10:56:48;4.82;;;3.47;;
25045;SDS011;13044;49.304;12.840;2023-08-20T10:59:26;3.75;;;3.45;;
25045;SDS011;13044;49.304;12.840;2023-08-20T11:01:56;3.78;;;3.47;;
25045;SDS011;13044;49.304;12.840;2023-08-20T11:04:25;3.85;;;3.55;;
25045;SDS011;13044;49.304;12.840;2023-08-20T11:06:58;3.70;;;3.40;;
25045;SDS011;13044;49.304;12.840;2023-08-20T11:09:27;3.50;;;3.30;;
25045;SDS011;13044;49.304;12.840;2023-08-20T11:11:56;4.10;;;3.80;;
25045;SDS011;13044;49.304;12.840;2023-08-20T11:14:24;4.85;;;3.70;;
25045;SDS011;13044;49.304;12.840;2023-08-20T11:16:51;4.47;;;4.07;;
25045;SDS011;13044;49.304;12.840;2023-08-20T11:19:22;7.15;;;4.28;;
25045;SDS011;13044;49.304;12.840;2023-08-20T11:21:50;3.40;;;3.20;;
25045;SDS011;13044;49.304;12.840;2023-08-20T11:24:17;3.72;;;3.42;;
25045;SDS011;13044;49.304;12.840;2023-08-20T11:26:46;4.07;;;3.78;;
25045;SDS011;13044;49.304;12.840;2023-08-20T11:29:14;4.03;;;3.72;;
25045;SDS011;13044;49.304;12.840;2023-08-20T11:31:49;3.85;;;3.58;;
25045;SDS011;13044;49.304;12.840;2023-08-20T11:34:18;3.75;;;3.45;;
25045;SDS011;13044;49.304;12.840;2023-08-20T11:36:45;3.42;;;3.17;;
25045;SDS011;13044;49.304;12.840;2023-08-20T11:39:12;3.83;;;3.53;;
25045;SDS011;13044;49.304;12.840;2023-08-20T11:41:39;3.95;;;3.58;;
25045;SDS011;13044;49.304;12.840;2023-08-20T11:44:09;4.10;;;3.80;;
25045;SDS011;13044;49.304;12.840;2023-08-20T11:46:43;3.70;;;3.50;;
25045;SDS011;13044;49.304;12.840;2023-08-20T11:49:11;3.45;;;3.15;;
25045;SDS011;13044;49.304;12.840;2023-08-20T11:51:43;3.85;;;3.55;;
25045;SDS011;13044;49.304;12.840;2023-08-20T11:54:14;4.30;;;3.90;;
25045;SDS011;13044;49.304;12.840;2023-08-20T11:56:46;4.10;;;3.70;;
25045;SDS011;13044;49.304;12.840;2023-08-20T11:59:15;3.60;;;3.35;;
25045;SDS011;13044;49.304;12.840;2023-08-20T12:01:51;3.72;;;3.42;;
25045;SDS011;13044;49.304;12.840;2023-08-20T12:04:26;3.63;;;3.33;;
25045;SDS011;13044;49.304;12.840;2023-08-20T12:07:02;4.25;;;3.85;;
25045;SDS011;13044;49.304;12.840;2023-08-20T12:09:40;4.03;;;3.60;;
25045;SDS011;13044;49.304;12.840;2023-08-20T12:12:09;3.75;;;3.30;;
25045;SDS011;13044;49.304;12.840;2023-08-20T12:14:36;3.83;;;3.35;;
25045;SDS011;13044;49.304;12.840;2023-08-20T12:17:03;3.33;;;3.13;;
25045;SDS011;13044;49.304;12.840;2023-08-20T12:19:30;3.55;;;3.22;;
25045;SDS011;13044;49.304;12.840;2023-08-20T12:21:57;3.97;;;3.42;;
25045;SDS011;13044;49.304;12.840;2023-08-20T12:24:24;4.22;;;3.83;;
25045;SDS011;13044;49.304;12.840;2023-08-20T12:26:52;3.42;;;3.22;;
25045;SDS011;13044;49.304;12.840;2023-08-20T12:29:19;3.30;;;3.10;;
25045;SDS011;13044;49.304;12.840;2023-08-20T12:31:46;4.25;;;3.65;;
25045;SDS011;13044;49.304;12.840;2023-08-20T12:34:13;4.18;;;3.85;;
25045;SDS011;13044;49.304;12.840;2023-08-20T12:36:40;3.88;;;3.58;;
25045;SDS011;13044;49.304;12.840;2023-08-20T12:39:07;3.95;;;3.65;;
25045;SDS011;13044;49.304;12.840;2023-08-20T12:41:34;3.97;;;3.67;;
25045;SDS011;13044;49.304;12.840;2023-08-20T12:44:02;4.45;;;4.05;;
25045;SDS011;13044;49.304;12.840;2023-08-20T12:46:30;6.82;;;3.60;;
25045;SDS011;13044;49.304;12.840;2023-08-20T12:48:57;3.92;;;3.63;;
25045;SDS011;13044;49.304;12.840;2023-08-20T12:51:24;4.55;;;3.20;;
25045;SDS011;13044;49.304;12.840;2023-08-20T12:53:50;3.92;;;3.60;;
25045;SDS011;13044;49.304;12.840;2023-08-20T12:56:17;3.80;;;3.50;;
25045;SDS011;13044;49.304;12.840;2023-08-20T12:58:44;3.33;;;3.03;;
25045;SDS011;13044;49.304;12.840;2023-08-20T13:01:11;3.70;;;3.30;;
25045;SDS011;13044;49.304;12.840;2023-08-20T13:03:38;3.55;;;3.25;;
25045;SDS011;13044;49.304;12.840;2023-08-20T13:06:06;3.40;;;3.10;;
25045;SDS011;13044;49.304;12.840;2023-08-20T13:08:33;3.92;;;3.63;;
25045;SDS011;13044;49.304;12.840;2023-08-20T13:11:01;5.05;;;3.58;;
25045;SDS011;13044;49.304;12.840;2023-08-20T13:13:29;4.80;;;3.20;;
25045;SDS011;13044;49.304;12.840;2023-08-20T13:16:00;4.95;;;3.60;;
25045;SDS011;13044;49.304;12.840;2023-08-20T13:18:27;4.65;;;4.10;;
25045;SDS011;13044;49.304;12.840;2023-08-20T13:20:55;3.50;;;3.20;;
25045;SDS011;13044;49.304;12.840;2023-08-20T13:23:22;5.50;;;3.28;;
25045;SDS011;13044;49.304;12.840;2023-08-20T13:25:50;4.10;;;3.70;;
25045;SDS011;13044;49.304;12.840;2023-08-20T13:28:17;3.60;;;3.30;;
25045;SDS011;13044;49.304;12.840;2023-08-20T13:30:44;3.63;;;2.95;;
25045;SDS011;13044;49.304;12.840;2023-08-20T13:33:12;4.82;;;3.55;;
25045;SDS011;13044;49.304;12.840;2023-08-20T13:35:41;3.50;;;3.20;;
25045;SDS011;13044;49.304;12.840;2023-08-20T13:38:08;3.28;;;2.97;;
25045;SDS011;13044;49.304;12.840;2023-08-20T13:40:35;3.40;;;3.20;;
25045;SDS011;13044;49.304;12.840;2023-08-20T13:43:02;4.47;;;3.15;;
25045;SDS011;13044;49.304;12.840;2023-08-20T13:45:30;5.05;;;3.50;;
25045;SDS011;13044;49.304;12.840;2023-08-20T13:47:57;3.80;;;3.50;;
25045;SDS011;13044;49.304;12.840;2023-08-20T13:50:24;5.53;;;3.78;;
25045;SDS011;13044;49.304;12.840;2023-08-20T13:52:51;3.80;;;3.20;;
25045;SDS011;13044;49.304;12.840;2023-08-20T13:55:18;2.88;;;2.67;;
25045;SDS011;13044;49.304;12.840;2023-08-20T13:57:45;3.40;;;2.83;;
25045;SDS011;13044;49.304;12.840;2023-08-20T14:00:12;3.40;;;3.10;;
25045;SDS011;13044;49.304;12.840;2023-08-20T14:02:39;6.55;;;3.03;;
25045;SDS011;13044;49.304;12.840;2023-08-20T14:05:06;3.92;;;3.53;;
25045;SDS011;13044;49.304;12.840;2023-08-20T14:07:34;3.28;;;3.00;;
25045;SDS011;13044;49.304;12.840;2023-08-20T14:10:02;4.05;;;3.33;;
25045;SDS011;13044;49.304;12.840;2023-08-20T14:12:33;3.83;;;3.53;;
25045;SDS011;13044;49.304;12.840;2023-08-20T14:15:04;3.33;;;3.05;;
25045;SDS011;13044;49.304;12.840;2023-08-20T14:17:32;8.82;;;3.10;;
25045;SDS011;13044;49.304;12.840;2023-08-20T14:19:59;3.42;;;3.03;;
25045;SDS011;13044;49.304;12.840;2023-08-20T14:22:26;3.45;;;2.95;;
25045;SDS011;13044;49.304;12.840;2023-08-20T14:24:53;8.65;;;3.20;;
25045;SDS011;13044;49.304;12.840;2023-08-20T14:27:19;4.05;;;2.70;;
25045;SDS011;13044;49.304;12.840;2023-08-20T14:29:48;3.33;;;3.03;;
25045;SDS011;13044;49.304;12.840;2023-08-20T14:32:15;3.15;;;2.85;;
25045;SDS011;13044;49.304;12.840;2023-08-20T14:34:42;3.17;;;2.92;;
25045;SDS011;13044;49.304;12.840;2023-08-20T14:37:09;3.60;;;3.30;;
25045;SDS011;13044;49.304;12.840;2023-08-20T14:39:39;3.30;;;3.00;;
25045;SDS011;13044;49.304;12.840;2023-08-20T14:42:06;3.47;;;3.17;;
25045;SDS011;13044;49.304;12.840;2023-08-20T14:44:33;3.35;;;2.78;;
25045;SDS011;13044;49.304;12.840;2023-08-20T14:47:00;3.33;;;3.03;;
25045;SDS011;13044;49.304;12.840;2023-08-20T14:49:27;3.45;;;2.90;;
25045;SDS011;13044;49.304;12.840;2023-08-20T14:51:55;4.10;;;2.80;;
25045;SDS011;13044;49.304;12.840;2023-08-20T14:54:42;5.18;;;3.33;;
25045;SDS011;13044;49.304;12.840;2023-08-20T14:57:09;3.35;;;2.90;;
25045;SDS011;13044;49.304;12.840;2023-08-20T14:59:36;7.28;;;3.40;;
25045;SDS011;13044;49.304;12.840;2023-08-20T15:02:03;3.28;;;2.78;;
25045;SDS011;13044;49.304;12.840;2023-08-20T15:04:30;3.20;;;2.90;;
25045;SDS011;13044;49.304;12.840;2023-08-20T15:06:57;4.93;;;3.55;;
25045;SDS011;13044;49.304;12.840;2023-08-20T15:09:24;3.15;;;2.95;;